createdAt,value
2023-01-22T00:01:26.994Z,17.38
2023-01-22T00:04:01.034Z,20.60
2023-01-22T00:06:28.030Z,21.30
2023-01-22T00:08:54.882Z,20.83
2023-01-22T00:11:27.999Z,19.98
2023-01-22T00:13:54.919Z,18.45
2023-01-22T00:16:21.772Z,16.05
2023-01-22T00:18:54.940Z,18.55
2023-01-22T00:21:21.745Z,16.77
2023-01-22T00:23:48.544Z,16.13
2023-01-22T00:26:23.949Z,15.63
2023-01-22T00:28:50.755Z,16.63
2023-01-22T00:31:25.098Z,14.40
2023-01-22T00:33:55.431Z,15.00
2023-01-22T00:36:29.027Z,13.60
2023-01-22T00:39:02.069Z,19.35
2023-01-22T00:41:29.001Z,17.50
2023-01-22T00:44:02.339Z,15.98
2023-01-22T00:46:29.187Z,15.32
2023-01-22T00:48:55.944Z,15.10
2023-01-22T00:51:29.134Z,14.68
2023-01-22T00:53:56.158Z,14.95
2023-01-22T00:56:22.999Z,14.98
2023-01-22T00:58:58.462Z,13.15
2023-01-22T01:01:25.515Z,14.13
2023-01-22T01:03:55.213Z,11.73
2023-01-22T01:06:29.087Z,13.13
2023-01-22T01:08:56.112Z,14.45
2023-01-22T01:11:23.923Z,11.77
2023-01-22T01:13:58.115Z,12.02
2023-01-22T01:16:29.221Z,13.00
2023-01-22T01:19:07.224Z,12.45
2023-01-22T01:21:34.740Z,12.80
2023-01-22T01:24:02.272Z,11.75
2023-01-22T01:26:36.130Z,13.52
2023-01-22T01:29:08.054Z,14.68
2023-01-22T01:31:34.822Z,14.48
2023-01-22T01:34:08.083Z,15.20
2023-01-22T01:36:48.330Z,15.70
2023-01-22T01:39:23.325Z,14.63
2023-01-22T01:41:50.831Z,14.25
2023-01-22T01:44:18.936Z,14.65
2023-01-22T01:47:02.418Z,14.30
2023-01-22T01:49:38.905Z,14.77
2023-01-22T01:52:17.107Z,13.50
2023-01-22T01:54:49.219Z,11.43
2023-01-22T01:57:31.134Z,12.35
2023-01-22T01:59:59.994Z,11.80
2023-01-22T02:02:26.927Z,11.70
2023-01-22T02:05:00.107Z,10.48
2023-01-22T02:07:33.289Z,10.02
2023-01-22T02:10:05.053Z,8.70
2023-01-22T02:12:40.275Z,10.90
2023-01-22T02:15:08.448Z,10.05
2023-01-22T02:17:35.775Z,10.07
2023-01-22T02:20:09.145Z,12.20
2023-01-22T02:22:49.149Z,10.63
2023-01-22T02:25:16.821Z,10.73
2023-01-22T02:27:50.424Z,10.40
2023-01-22T02:30:17.925Z,10.07
2023-01-22T02:32:44.874Z,10.00
2023-01-22T02:35:18.152Z,11.60
2023-01-22T02:37:45.051Z,8.38
2023-01-22T02:40:19.449Z,8.80
2023-01-22T02:42:46.495Z,8.85
2023-01-22T02:45:16.380Z,11.20
2023-01-22T02:47:50.169Z,11.82
2023-01-22T02:50:24.204Z,12.85
2023-01-22T02:52:50.994Z,11.73
2023-01-22T02:55:24.258Z,11.65
2023-01-22T02:57:56.643Z,10.73
2023-01-22T03:00:23.518Z,10.57
2023-01-22T03:03:06.380Z,9.77
2023-01-22T03:05:36.026Z,10.25
2023-01-22T03:08:02.805Z,9.95
2023-01-22T03:10:36.242Z,9.95
2023-01-22T03:13:28.486Z,10.35
2023-01-22T03:16:14.312Z,10.90
2023-01-22T03:19:06.508Z,10.15
2023-01-22T03:21:33.331Z,9.55
2023-01-22T03:24:00.200Z,11.35
2023-01-22T03:26:35.238Z,11.55
2023-01-22T03:29:02.405Z,10.20
2023-01-22T03:31:29.527Z,11.30
2023-01-22T03:34:03.224Z,12.32
2023-01-22T03:36:36.406Z,10.68
2023-01-22T03:39:10.256Z,10.45
2023-01-22T03:41:37.638Z,10.50
2023-01-22T03:44:04.628Z,10.57
2023-01-22T03:46:38.300Z,11.13
2023-01-22T03:49:05.338Z,9.60
2023-01-22T03:51:40.693Z,10.20
2023-01-22T03:54:14.623Z,9.70
2023-01-22T03:56:42.096Z,8.27
2023-01-22T03:59:10.136Z,8.80
2023-01-22T04:01:44.282Z,8.55
2023-01-22T04:04:17.284Z,7.32
2023-01-22T04:06:44.107Z,7.90
2023-01-22T04:09:10.901Z,7.78
2023-01-22T04:11:44.562Z,7.30
2023-01-22T04:14:11.277Z,8.38
2023-01-22T04:16:38.197Z,9.00
2023-01-22T04:19:11.298Z,8.52
2023-01-22T04:21:44.314Z,7.53
2023-01-22T04:24:17.789Z,7.75
2023-01-22T04:26:44.566Z,8.48
2023-01-22T04:29:11.719Z,7.78
2023-01-22T04:31:45.385Z,9.68
2023-01-22T04:34:12.231Z,8.77
2023-01-22T04:36:39.165Z,8.48
2023-01-22T04:39:12.348Z,8.20
2023-01-22T04:41:39.113Z,8.20
2023-01-22T04:44:12.369Z,8.30
2023-01-22T04:46:39.122Z,8.43
2023-01-22T04:49:12.339Z,8.60
2023-01-22T04:51:39.075Z,9.77
2023-01-22T04:54:05.901Z,7.93
2023-01-22T04:56:39.450Z,8.75
2023-01-22T04:59:06.154Z,8.13
2023-01-22T05:01:33.033Z,8.15
2023-01-22T05:04:08.511Z,7.85
2023-01-22T05:06:35.304Z,6.65
2023-01-22T05:09:02.163Z,7.85
2023-01-22T05:11:35.432Z,6.90
2023-01-22T05:14:03.295Z,7.78
2023-01-22T05:16:30.214Z,8.40
2023-01-22T05:19:03.366Z,7.03
2023-01-22T05:21:30.254Z,8.25
2023-01-22T05:24:03.406Z,7.85
2023-01-22T05:26:36.435Z,9.00
2023-01-22T05:29:03.427Z,8.10
2023-01-22T05:31:30.569Z,8.68
2023-01-22T05:34:03.736Z,9.25
2023-01-22T05:36:31.011Z,9.23
2023-01-22T05:38:57.832Z,9.57
2023-01-22T05:41:31.697Z,9.30
2023-01-22T05:44:00.972Z,8.43
2023-01-22T05:46:27.878Z,10.73
2023-01-22T05:49:01.602Z,9.90
2023-01-22T05:51:29.649Z,9.27
2023-01-22T05:53:58.338Z,9.13
2023-01-22T05:56:31.855Z,9.63
2023-01-22T05:58:58.862Z,8.88
2023-01-22T06:01:30.060Z,9.10
2023-01-22T06:04:03.501Z,8.93
2023-01-22T06:06:30.368Z,9.15
2023-01-22T06:08:57.235Z,8.77
2023-01-22T06:11:30.496Z,8.50
2023-01-22T06:13:57.356Z,7.93
2023-01-22T06:16:24.354Z,8.25
2023-01-22T06:18:59.550Z,7.85
2023-01-22T06:21:26.538Z,8.32
2023-01-22T06:23:59.849Z,8.45
2023-01-22T06:26:26.920Z,8.90
2023-01-22T06:28:55.269Z,8.88
2023-01-22T06:31:28.889Z,10.00
2023-01-22T06:33:56.133Z,9.13
2023-01-22T06:36:23.093Z,9.70
2023-01-22T06:38:56.571Z,9.20
2023-01-22T06:41:23.421Z,9.45
2023-01-22T06:43:56.493Z,8.55
2023-01-22T06:46:23.417Z,9.30
2023-01-22T06:48:56.583Z,8.63
2023-01-22T06:51:23.390Z,9.90
2023-01-22T06:53:50.241Z,9.25
2023-01-22T06:56:23.551Z,9.00
2023-01-22T06:58:56.660Z,9.40
2023-01-22T07:01:23.610Z,8.68
2023-01-22T07:03:50.411Z,7.82
2023-01-22T07:06:25.538Z,8.30
2023-01-22T07:08:52.335Z,8.50
2023-01-22T07:11:19.379Z,8.75
2023-01-22T07:13:53.051Z,9.93
2023-01-22T07:16:26.607Z,7.47
2023-01-22T07:18:53.395Z,8.57
2023-01-22T07:21:20.277Z,8.02
2023-01-22T07:23:53.569Z,7.90
2023-01-22T07:26:26.602Z,7.25
2023-01-22T07:28:53.367Z,8.48
2023-01-22T07:31:20.150Z,7.90
2023-01-22T07:33:53.619Z,7.95
2023-01-22T07:36:20.451Z,7.55
2023-01-22T07:38:47.238Z,8.90
2023-01-22T07:41:26.096Z,9.65
2023-01-22T07:43:56.186Z,8.75
2023-01-22T07:46:23.372Z,8.23
2023-01-22T07:48:56.645Z,8.70
2023-01-22T07:51:29.647Z,8.20
2023-01-22T07:54:03.619Z,8.27
2023-01-22T07:56:30.465Z,7.93
2023-01-22T07:58:57.296Z,7.80
2023-01-22T08:01:30.687Z,6.95
2023-01-22T08:03:57.749Z,7.25
2023-01-22T08:06:24.772Z,8.15
2023-01-22T08:08:58.628Z,8.27
2023-01-22T08:11:26.605Z,8.18
2023-01-22T08:14:01.944Z,8.57
2023-01-22T08:16:29.015Z,7.32
2023-01-22T08:18:55.846Z,6.82
2023-01-22T08:21:28.776Z,6.85
2023-01-22T08:23:55.563Z,7.15
2023-01-22T08:26:22.328Z,7.38
2023-01-22T08:28:55.709Z,6.32
2023-01-22T08:31:27.971Z,7.57
2023-01-22T08:33:57.305Z,7.00
2023-01-22T08:36:30.727Z,6.18
2023-01-22T08:39:04.004Z,7.68
2023-01-22T08:41:30.842Z,7.63
2023-01-22T08:43:57.682Z,6.82
2023-01-22T08:46:31.877Z,7.63
2023-01-22T08:49:06.127Z,8.30
2023-01-22T08:51:33.266Z,7.55
2023-01-22T08:54:00.123Z,7.38
2023-01-22T08:56:33.868Z,7.35
2023-01-22T08:59:06.290Z,8.43
2023-01-22T09:01:41.038Z,6.68
2023-01-22T09:04:12.847Z,6.72
2023-01-22T09:06:39.973Z,7.18
2023-01-22T09:09:13.799Z,7.45
2023-01-22T09:11:40.959Z,6.82
2023-01-22T09:14:20.775Z,7.28
2023-01-22T09:16:53.756Z,7.03
2023-01-22T09:19:20.617Z,7.22
2023-01-22T09:21:53.874Z,6.57
2023-01-22T09:24:20.622Z,6.47
2023-01-22T09:26:53.792Z,7.57
2023-01-22T09:29:20.622Z,7.63
2023-01-22T09:31:54.065Z,7.10
2023-01-22T09:34:22.042Z,7.13
2023-01-22T09:36:52.228Z,6.38
2023-01-22T09:39:26.048Z,7.72
2023-01-22T09:41:57.457Z,7.22
2023-01-22T09:44:51.799Z,7.27
2023-01-22T09:47:37.933Z,8.50
2023-01-22T09:50:04.700Z,7.68
2023-01-22T09:52:34.825Z,8.25
2023-01-22T09:55:07.881Z,7.43
2023-01-22T09:57:34.622Z,7.50
2023-01-22T10:00:08.090Z,7.35
2023-01-22T10:02:42.492Z,6.57
2023-01-22T10:05:52.795Z,7.90
2023-01-22T10:09:01.121Z,7.28
2023-01-22T10:11:27.976Z,7.85
2023-01-22T10:13:58.006Z,7.55
2023-01-22T10:16:31.879Z,6.43
2023-01-22T10:19:01.446Z,6.05
2023-01-22T10:21:29.937Z,6.32
2023-01-22T10:24:04.868Z,6.85
2023-01-22T10:26:39.223Z,7.10
2023-01-22T10:29:39.951Z,6.50
2023-01-22T10:32:25.371Z,7.40
2023-01-22T10:35:24.889Z,7.35
2023-01-22T10:37:56.314Z,7.50
2023-01-22T10:40:42.202Z,6.82
2023-01-22T10:43:14.417Z,7.40
2023-01-22T10:45:59.054Z,7.15
2023-01-22T10:48:26.197Z,7.97
2023-01-22T10:51:27.899Z,8.30
2023-01-22T10:54:03.916Z,7.38
2023-01-22T10:56:33.873Z,6.57
2023-01-22T10:59:21.900Z,7.47
2023-01-22T11:01:51.288Z,7.10
2023-01-22T11:04:36.918Z,6.63
2023-01-22T11:07:16.468Z,7.70
2023-01-22T11:10:16.322Z,8.45
2023-01-22T11:13:15.499Z,7.40
2023-01-22T11:16:05.939Z,7.50
2023-01-22T11:18:37.077Z,7.13
2023-01-22T11:21:21.080Z,6.93
2023-01-22T11:23:56.463Z,6.72
2023-01-22T11:27:13.030Z,6.35
2023-01-22T11:29:58.862Z,5.93
2023-01-22T11:32:52.243Z,7.00
2023-01-22T11:35:46.279Z,6.30
2023-01-22T11:38:41.278Z,6.70
2023-01-22T11:41:44.734Z,6.68
2023-01-22T11:44:56.962Z,6.25
2023-01-22T11:48:15.063Z,6.10
2023-01-22T11:50:57.288Z,5.82
2023-01-22T11:53:49.153Z,5.47
2023-01-22T11:56:37.830Z,5.30
2023-01-22T11:59:14.031Z,6.63
2023-01-22T12:02:09.309Z,6.25
2023-01-22T12:05:04.282Z,6.43
2023-01-22T12:07:57.042Z,6.70
2023-01-22T12:10:37.868Z,6.10
2023-01-22T12:13:43.365Z,5.35
2023-01-22T12:16:27.920Z,5.65
2023-01-22T12:19:10.312Z,6.20
2023-01-22T12:21:58.276Z,4.95
2023-01-22T12:24:51.228Z,6.03
2023-01-22T12:27:39.060Z,5.82
2023-01-22T12:30:30.143Z,5.40
2023-01-22T12:33:06.892Z,5.93
2023-01-22T12:35:40.321Z,5.70
2023-01-22T12:38:12.537Z,6.07
2023-01-22T12:41:01.123Z,5.50
2023-01-22T12:43:58.097Z,5.30
2023-01-22T12:47:00.110Z,6.78
2023-01-22T12:49:34.070Z,5.83
2023-01-22T12:52:08.130Z,5.60
2023-01-22T12:54:38.236Z,5.50
2023-01-22T12:57:24.282Z,5.35
2023-01-22T12:59:55.387Z,4.80
2023-01-22T13:02:43.168Z,5.97
2023-01-22T13:05:18.799Z,5.38
2023-01-22T13:07:53.286Z,5.70
2023-01-22T13:10:20.848Z,5.10
2023-01-22T13:12:50.690Z,5.07
2023-01-22T13:15:27.242Z,5.60
2023-01-22T13:18:06.619Z,6.45
2023-01-22T13:20:44.413Z,6.00
2023-01-22T13:23:13.814Z,6.05
2023-01-22T13:25:42.889Z,6.70
2023-01-22T13:28:24.284Z,6.43
2023-01-22T13:31:10.492Z,6.10
2023-01-22T13:34:00.690Z,5.60
2023-01-22T13:36:35.327Z,5.90
2023-01-22T13:39:02.087Z,6.63
2023-01-22T13:41:34.295Z,6.60
2023-01-22T13:44:10.211Z,5.88
2023-01-22T13:46:45.279Z,6.22
2023-01-22T13:49:26.287Z,6.45
2023-01-22T13:52:01.159Z,6.25
2023-01-22T13:54:43.044Z,5.78
2023-01-22T13:57:21.292Z,6.30
2023-01-22T13:59:59.172Z,7.03
2023-01-22T14:02:44.472Z,5.90
2023-01-22T14:05:23.226Z,5.90
2023-01-22T14:07:57.230Z,6.13
2023-01-22T14:10:25.431Z,6.82
2023-01-22T14:13:17.207Z,5.97
2023-01-22T14:15:55.818Z,7.50
2023-01-22T14:18:36.332Z,7.60
2023-01-22T14:21:03.891Z,8.25
2023-01-22T14:23:31.094Z,7.93
2023-01-22T14:26:04.235Z,7.72
2023-01-22T14:28:38.229Z,6.95
2023-01-22T14:31:12.359Z,7.75
2023-01-22T14:33:39.160Z,6.72
2023-01-22T14:36:13.502Z,6.80
2023-01-22T14:38:40.296Z,7.15
2023-01-22T14:41:07.759Z,8.77
2023-01-22T14:43:42.511Z,8.80
2023-01-22T14:46:09.420Z,8.55
2023-01-22T14:48:36.397Z,8.95
2023-01-22T14:51:18.325Z,7.95
2023-01-22T14:53:45.243Z,8.40
2023-01-22T14:56:12.089Z,8.15
2023-01-22T14:58:45.593Z,9.43
2023-01-22T15:01:21.095Z,10.07
2023-01-22T15:03:55.305Z,8.52
2023-01-22T15:06:31.373Z,8.38
2023-01-22T15:09:00.719Z,9.18
2023-01-22T15:11:27.563Z,9.13
2023-01-22T15:14:05.301Z,8.18
2023-01-22T15:16:32.850Z,8.20
2023-01-22T15:19:06.314Z,7.85
2023-01-22T15:21:33.102Z,8.43
2023-01-22T15:24:08.348Z,7.53
2023-01-22T15:26:36.680Z,7.55
2023-01-22T15:29:20.291Z,7.50
2023-01-22T15:31:53.650Z,8.27
2023-01-22T15:34:20.603Z,8.60
2023-01-22T15:36:47.380Z,8.43
2023-01-22T15:39:20.408Z,8.95
2023-01-22T15:41:53.376Z,8.93
2023-01-22T15:44:20.169Z,7.95
2023-01-22T15:46:47.311Z,8.77
2023-01-22T15:49:20.350Z,8.57
2023-01-22T15:51:47.181Z,8.38
2023-01-22T15:54:23.352Z,8.57
2023-01-22T15:56:51.700Z,7.20
2023-01-22T15:59:18.641Z,7.63
2023-01-22T16:01:52.411Z,7.75
2023-01-22T16:04:19.329Z,6.80
2023-01-22T16:06:46.179Z,8.68
2023-01-22T16:09:19.412Z,8.00
2023-01-22T16:11:52.687Z,7.00
2023-01-22T16:14:19.897Z,8.00
2023-01-22T16:16:46.719Z,7.57
2023-01-22T16:19:20.885Z,8.45
2023-01-22T16:21:48.052Z,9.60
2023-01-22T16:24:14.961Z,8.40
2023-01-22T16:26:48.533Z,8.90
2023-01-22T16:29:15.293Z,9.90
2023-01-22T16:31:42.308Z,10.00
2023-01-22T16:34:18.592Z,10.18
2023-01-22T16:36:45.959Z,9.50
2023-01-22T16:39:28.466Z,10.60
2023-01-22T16:41:56.961Z,9.30
2023-01-22T16:44:33.676Z,10.63
2023-01-22T16:47:00.802Z,10.77
2023-01-22T16:49:39.672Z,11.10
2023-01-22T16:52:22.019Z,10.18
2023-01-22T16:54:56.610Z,9.18
2023-01-22T16:57:27.156Z,8.90
2023-01-22T16:59:53.930Z,10.00
2023-01-22T17:02:33.813Z,10.93
2023-01-22T17:05:00.692Z,11.65
2023-01-22T17:07:33.729Z,9.93
2023-01-22T17:10:07.485Z,8.93
2023-01-22T17:12:42.466Z,8.60
2023-01-22T17:15:21.702Z,8.40
2023-01-22T17:17:57.864Z,8.43
2023-01-22T17:20:31.508Z,7.20
2023-01-22T17:22:58.434Z,7.82
2023-01-22T17:25:31.474Z,9.05
2023-01-22T17:28:00.324Z,8.85
2023-01-22T17:30:33.574Z,8.57
2023-01-22T17:33:00.436Z,9.82
2023-01-22T17:35:33.734Z,11.38
2023-01-22T17:38:05.875Z,9.23
2023-01-22T17:40:33.035Z,9.35
2023-01-22T17:43:09.812Z,8.77
2023-01-22T17:45:39.918Z,8.25
2023-01-22T17:48:06.945Z,8.77
2023-01-22T17:50:40.649Z,9.15
2023-01-22T17:53:07.468Z,7.90
2023-01-22T17:55:34.234Z,8.38
2023-01-22T17:58:07.821Z,8.90
2023-01-22T18:00:37.687Z,8.57
2023-01-22T18:03:05.257Z,8.40
2023-01-22T18:05:40.895Z,10.00
2023-01-22T18:08:09.016Z,11.15
2023-01-22T18:10:37.968Z,11.38
2023-01-22T18:13:11.571Z,10.57
2023-01-22T18:15:44.744Z,9.10
2023-01-22T18:18:11.486Z,10.95
2023-01-22T18:20:38.372Z,9.75
2023-01-22T18:25:56.095Z,10.95
2023-01-22T18:28:31.899Z,10.05
2023-01-22T18:31:10.394Z,8.40
2023-01-22T18:33:44.725Z,12.57
2023-01-22T18:36:20.927Z,11.40
2023-01-22T18:38:54.890Z,10.40
2023-01-22T18:41:23.897Z,10.68
2023-01-22T18:44:01.917Z,10.10
2023-01-22T18:46:33.813Z,14.70
2023-01-22T18:49:09.883Z,11.32
2023-01-22T18:51:37.008Z,10.70
2023-01-22T18:54:05.336Z,10.80
2023-01-22T18:56:38.781Z,10.40
2023-01-22T18:59:05.905Z,10.82
2023-01-22T19:01:57.936Z,10.45
2023-01-22T19:04:31.739Z,9.48
2023-01-22T19:07:06.945Z,8.30
2023-01-22T19:09:34.381Z,10.27
2023-01-22T19:12:01.269Z,9.52
2023-01-22T19:14:34.666Z,9.55
2023-01-22T19:17:09.713Z,9.32
2023-01-22T19:19:36.463Z,10.18
2023-01-22T19:22:04.050Z,9.35
2023-01-22T19:24:39.133Z,9.68
2023-01-22T19:27:06.136Z,8.23
2023-01-22T19:29:32.983Z,8.35
2023-01-22T19:32:06.986Z,11.70
2023-01-22T19:34:33.940Z,9.20
2023-01-22T19:37:02.280Z,9.15
2023-01-22T19:39:37.011Z,7.65
2023-01-22T19:42:10.305Z,9.77
2023-01-22T19:44:43.775Z,9.40
2023-01-22T19:47:26.872Z,8.75
2023-01-22T19:49:54.255Z,9.02
2023-01-22T19:52:35.734Z,9.15
2023-01-22T19:55:02.537Z,9.25
2023-01-22T19:57:30.269Z,9.60
2023-01-22T20:00:04.847Z,8.80
2023-01-22T20:02:34.861Z,9.05
2023-01-22T20:05:07.885Z,7.80
2023-01-22T20:07:35.411Z,9.00
2023-01-22T20:10:02.207Z,8.68
2023-01-22T20:12:35.793Z,8.55
2023-01-22T20:15:10.065Z,9.35
2023-01-22T20:17:37.170Z,9.25
2023-01-22T20:20:05.656Z,10.02
2023-01-22T20:22:39.786Z,9.45
2023-01-22T20:25:22.146Z,10.32
2023-01-22T20:27:56.908Z,8.75
2023-01-22T20:30:23.914Z,9.60
2023-01-22T20:32:51.404Z,8.82
2023-01-22T20:35:25.777Z,8.85
2023-01-22T20:38:06.824Z,8.80
2023-01-22T20:40:34.814Z,8.82
2023-01-22T20:43:08.800Z,8.18
2023-01-22T20:45:35.676Z,9.95
2023-01-22T20:48:02.477Z,10.90
2023-01-22T20:50:35.805Z,9.45
2023-01-22T20:53:09.982Z,9.52
2023-01-22T20:55:36.890Z,8.57
2023-01-22T20:58:03.746Z,9.75
2023-01-22T21:00:36.907Z,9.95
2023-01-22T21:03:06.652Z,9.35
2023-01-22T21:05:40.839Z,8.73
2023-01-22T21:08:07.638Z,10.32
2023-01-22T21:10:34.447Z,10.57
2023-01-22T21:13:07.850Z,11.60
2023-01-22T21:15:34.703Z,9.93
2023-01-22T21:18:07.860Z,9.77
2023-01-22T21:20:34.688Z,8.63
2023-01-22T21:23:08.219Z,10.38
2023-01-22T21:25:35.984Z,10.60
2023-01-22T21:28:04.106Z,9.23
2023-01-22T21:30:38.065Z,9.82
2023-01-22T21:33:04.900Z,9.30
2023-01-22T21:35:31.757Z,9.45
2023-01-22T21:38:09.162Z,9.35
2023-01-22T21:40:35.981Z,9.73
2023-01-22T21:43:27.978Z,11.10
2023-01-22T21:46:19.998Z,9.60
2023-01-22T21:48:49.691Z,9.18
2023-01-22T21:51:16.517Z,9.80
2023-01-22T21:53:51.876Z,8.95
2023-01-22T21:56:19.112Z,8.75
2023-01-22T21:58:53.053Z,9.05
2023-01-22T22:01:21.754Z,8.25
2023-01-22T22:03:48.989Z,7.65
2023-01-22T22:06:22.059Z,8.32
2023-01-22T22:08:48.791Z,10.57
2023-01-22T22:11:15.684Z,10.10
2023-01-22T22:13:49.112Z,9.73
2023-01-22T22:16:16.064Z,10.10
2023-01-22T22:18:42.914Z,9.57
2023-01-22T22:21:18.222Z,11.82
2023-01-22T22:23:45.039Z,9.68
2023-01-22T22:26:12.081Z,9.20
2023-01-22T22:28:46.299Z,8.27
2023-01-22T22:31:15.461Z,8.98
2023-01-22T22:33:45.510Z,8.43
2023-01-22T22:36:20.994Z,8.00
2023-01-22T22:38:48.527Z,7.30
2023-01-22T22:41:32.015Z,9.00
2023-01-22T22:44:06.938Z,7.55
2023-01-22T22:46:43.058Z,8.07
2023-01-22T22:49:12.675Z,7.32
2023-01-22T22:51:41.612Z,7.53
2023-01-22T22:54:18.963Z,9.25
2023-01-22T22:56:47.408Z,7.85
2023-01-22T22:59:15.662Z,7.82
2023-01-22T23:01:49.024Z,7.43
2023-01-22T23:04:25.052Z,9.27
2023-01-22T23:06:52.053Z,7.93
2023-01-22T23:09:27.390Z,9.50
2023-01-22T23:12:00.549Z,8.93
2023-01-22T23:14:34.039Z,7.57
2023-01-22T23:17:09.042Z,7.72
2023-01-22T23:19:35.832Z,7.78
2023-01-22T23:22:16.053Z,9.27
2023-01-22T23:24:44.852Z,9.73
2023-01-22T23:27:11.843Z,9.45
2023-01-22T23:29:45.081Z,9.40
2023-01-22T23:32:23.104Z,9.52
2023-01-22T23:34:57.122Z,10.15
2023-01-22T23:37:31.360Z,9.95
2023-01-22T23:39:58.221Z,9.65
2023-01-22T23:42:26.976Z,8.20
2023-01-22T23:45:00.092Z,8.93
2023-01-22T23:47:38.086Z,7.75
2023-01-22T23:50:05.790Z,8.18
2023-01-22T23:52:39.072Z,7.68
2023-01-22T23:55:06.289Z,10.23
2023-01-22T23:57:40.060Z,9.13
